sensor_id;sensor_type;location;lat;lon;timestamp;temperature;humidity
48208;DHT22;33997;53.278;9.708;2022-11-04T00:01:27;10.30;93.00
48208;DHT22;33997;53.278;9.708;2022-11-04T00:03:52;10.30;93.20
48208;DHT22;33997;53.278;9.708;2022-11-04T00:06:18;10.20;93.20
48208;DHT22;33997;53.278;9.708;2022-11-04T00:08:50;10.20;93.40
48208;DHT22;33997;53.278;9.708;2022-11-04T00:11:16;10.20;93.40
48208;DHT22;33997;53.278;9.708;2022-11-04T00:14:00;10.20;93.60
48208;DHT22;33997;53.278;9.708;2022-11-04T00:16:26;10.20;93.60
48208;DHT22;33997;53.278;9.708;2022-11-04T00:19:10;10.30;93.90
48208;DHT22;33997;53.278;9.708;2022-11-04T00:21:35;10.20;93.90
48208;DHT22;33997;53.278;9.708;2022-11-04T00:24:19;10.30;93.90
48208;DHT22;33997;53.278;9.708;2022-11-04T00:27:15;10.30;94.00
48208;DHT22;33997;53.278;9.708;2022-11-04T00:29:59;10.30;93.90
48208;DHT22;33997;53.278;9.708;2022-11-04T00:32:24;10.30;94.10
48208;DHT22;33997;53.278;9.708;2022-11-04T00:35:09;10.30;94.10
48208;DHT22;33997;53.278;9.708;2022-11-04T00:37:36;10.30;94.10
48208;DHT22;33997;53.278;9.708;2022-11-04T00:40:02;10.30;94.20
48208;DHT22;33997;53.278;9.708;2022-11-04T00:42:27;10.30;94.30
48208;DHT22;33997;53.278;9.708;2022-11-04T00:44:52;10.30;94.30
48208;DHT22;33997;53.278;9.708;2022-11-04T00:47:18;10.30;94.30
48208;DHT22;33997;53.278;9.708;2022-11-04T00:49:43;10.40;94.40
48208;DHT22;33997;53.278;9.708;2022-11-04T00:52:09;10.30;94.30
48208;DHT22;33997;53.278;9.708;2022-11-04T00:54:34;10.40;94.30
48208;DHT22;33997;53.278;9.708;2022-11-04T00:56:59;10.40;94.50
48208;DHT22;33997;53.278;9.708;2022-11-04T00:59:25;10.30;94.60
48208;DHT22;33997;53.278;9.708;2022-11-04T01:01:50;10.30;94.90
48208;DHT22;33997;53.278;9.708;2022-11-04T01:04:16;10.30;95.00
48208;DHT22;33997;53.278;9.708;2022-11-04T01:06:41;10.30;95.10
48208;DHT22;33997;53.278;9.708;2022-11-04T01:09:07;10.30;95.30
48208;DHT22;33997;53.278;9.708;2022-11-04T01:11:33;10.30;95.30
48208;DHT22;33997;53.278;9.708;2022-11-04T01:13:59;10.30;95.40
48208;DHT22;33997;53.278;9.708;2022-11-04T01:16:24;10.40;95.30
48208;DHT22;33997;53.278;9.708;2022-11-04T01:18:50;10.40;95.30
48208;DHT22;33997;53.278;9.708;2022-11-04T01:21:16;10.40;95.20
48208;DHT22;33997;53.278;9.708;2022-11-04T01:23:42;10.40;95.00
48208;DHT22;33997;53.278;9.708;2022-11-04T01:26:08;10.50;94.70
48208;DHT22;33997;53.278;9.708;2022-11-04T01:28:34;10.50;94.40
48208;DHT22;33997;53.278;9.708;2022-11-04T01:31:10;10.50;94.20
48208;DHT22;33997;53.278;9.708;2022-11-04T01:33:36;10.60;93.70
48208;DHT22;33997;53.278;9.708;2022-11-04T01:36:02;10.60;93.50
48208;DHT22;33997;53.278;9.708;2022-11-04T01:38:28;10.60;93.40
48208;DHT22;33997;53.278;9.708;2022-11-04T01:40:53;10.60;93.40
48208;DHT22;33997;53.278;9.708;2022-11-04T01:43:20;10.60;93.00
48208;DHT22;33997;53.278;9.708;2022-11-04T01:45:47;10.70;92.80
48208;DHT22;33997;53.278;9.708;2022-11-04T01:48:18;10.60;92.90
48208;DHT22;33997;53.278;9.708;2022-11-04T01:50:46;10.70;93.10
48208;DHT22;33997;53.278;9.708;2022-11-04T01:53:14;10.60;93.10
48208;DHT22;33997;53.278;9.708;2022-11-04T01:55:44;10.60;93.30
48208;DHT22;33997;53.278;9.708;2022-11-04T01:58:13;10.60;93.40
48208;DHT22;33997;53.278;9.708;2022-11-04T02:00:40;10.60;93.50
48208;DHT22;33997;53.278;9.708;2022-11-04T02:05:50;10.60;93.50
48208;DHT22;33997;53.278;9.708;2022-11-04T02:08:16;10.70;93.50
48208;DHT22;33997;53.278;9.708;2022-11-04T02:10:46;10.60;93.60
48208;DHT22;33997;53.278;9.708;2022-11-04T02:13:12;10.70;93.80
48208;DHT22;33997;53.278;9.708;2022-11-04T02:16:02;10.70;93.70
48208;DHT22;33997;53.278;9.708;2022-11-04T02:21:41;10.70;93.60
48208;DHT22;33997;53.278;9.708;2022-11-04T02:24:11;10.70;93.60
48208;DHT22;33997;53.278;9.708;2022-11-04T02:26:45;10.70;93.70
48208;DHT22;33997;53.278;9.708;2022-11-04T02:29:16;10.70;93.90
48208;DHT22;33997;53.278;9.708;2022-11-04T02:39:34;10.70;94.20
48208;DHT22;33997;53.278;9.708;2022-11-04T02:42:11;10.80;94.10
48208;DHT22;33997;53.278;9.708;2022-11-04T02:44:50;10.80;94.10
48208;DHT22;33997;53.278;9.708;2022-11-04T02:47:20;10.80;94.10
48208;DHT22;33997;53.278;9.708;2022-11-04T02:52:36;10.80;94.20
48208;DHT22;33997;53.278;9.708;2022-11-04T02:55:17;10.80;94.40
48208;DHT22;33997;53.278;9.708;2022-11-04T02:57:44;10.90;94.20
48208;DHT22;33997;53.278;9.708;2022-11-04T03:00:11;10.90;94.20
48208;DHT22;33997;53.278;9.708;2022-11-04T03:02:43;10.90;94.30
48208;DHT22;33997;53.278;9.708;2022-11-04T03:05:10;10.90;94.50
48208;DHT22;33997;53.278;9.708;2022-11-04T03:07:39;10.90;94.60
48208;DHT22;33997;53.278;9.708;2022-11-04T03:10:07;11.00;94.70
48208;DHT22;33997;53.278;9.708;2022-11-04T03:12:40;11.00;94.60
48208;DHT22;33997;53.278;9.708;2022-11-04T03:15:08;11.00;94.60
48208;DHT22;33997;53.278;9.708;2022-11-04T03:17:40;11.00;94.70
48208;DHT22;33997;53.278;9.708;2022-11-04T03:20:08;11.00;94.90
48208;DHT22;33997;53.278;9.708;2022-11-04T03:22:37;11.00;94.80
48208;DHT22;33997;53.278;9.708;2022-11-04T03:25:03;11.00;94.80
48208;DHT22;33997;53.278;9.708;2022-11-04T03:30:14;11.00;95.00
48208;DHT22;33997;53.278;9.708;2022-11-04T03:32:56;11.00;94.90
48208;DHT22;33997;53.278;9.708;2022-11-04T03:35:24;11.00;95.00
48208;DHT22;33997;53.278;9.708;2022-11-04T03:37:50;11.00;94.90
48208;DHT22;33997;53.278;9.708;2022-11-04T03:40:16;11.00;94.90
48208;DHT22;33997;53.278;9.708;2022-11-04T03:42:46;11.00;94.70
48208;DHT22;33997;53.278;9.708;2022-11-04T03:45:12;11.00;94.70
48208;DHT22;33997;53.278;9.708;2022-11-04T03:47:38;11.00;94.70
48208;DHT22;33997;53.278;9.708;2022-11-04T03:50:06;11.00;94.50
48208;DHT22;33997;53.278;9.708;2022-11-04T03:52:33;11.10;94.40
48208;DHT22;33997;53.278;9.708;2022-11-04T03:55:00;11.10;94.30
48208;DHT22;33997;53.278;9.708;2022-11-04T03:57:29;11.10;94.20
48208;DHT22;33997;53.278;9.708;2022-11-04T04:05:01;11.10;91.70
48208;DHT22;33997;53.278;9.708;2022-11-04T04:07:31;11.10;91.60
48208;DHT22;33997;53.278;9.708;2022-11-04T04:10:03;11.00;91.30
48208;DHT22;33997;53.278;9.708;2022-11-04T04:12:49;11.00;90.90
48208;DHT22;33997;53.278;9.708;2022-11-04T04:15:17;11.00;90.90
48208;DHT22;33997;53.278;9.708;2022-11-04T04:17:46;11.00;90.80
48208;DHT22;33997;53.278;9.708;2022-11-04T04:20:16;10.90;90.50
48208;DHT22;33997;53.278;9.708;2022-11-04T04:22:44;10.80;90.50
48208;DHT22;33997;53.278;9.708;2022-11-04T04:25:11;10.80;90.10
48208;DHT22;33997;53.278;9.708;2022-11-04T04:27:57;10.80;90.30
48208;DHT22;33997;53.278;9.708;2022-11-04T04:30:23;10.80;89.90
48208;DHT22;33997;53.278;9.708;2022-11-04T04:32:50;10.80;90.10
48208;DHT22;33997;53.278;9.708;2022-11-04T04:35:17;10.80;89.40
48208;DHT22;33997;53.278;9.708;2022-11-04T04:38:04;10.80;89.40
48208;DHT22;33997;53.278;9.708;2022-11-04T04:40:52;10.70;89.30
48208;DHT22;33997;53.278;9.708;2022-11-04T04:43:37;10.60;89.60
48208;DHT22;33997;53.278;9.708;2022-11-04T04:46:24;10.70;89.50
48208;DHT22;33997;53.278;9.708;2022-11-04T04:48:50;10.60;89.60
48208;DHT22;33997;53.278;9.708;2022-11-04T04:51:15;10.60;89.70
48208;DHT22;33997;53.278;9.708;2022-11-04T04:53:41;10.50;89.80
48208;DHT22;33997;53.278;9.708;2022-11-04T04:56:06;10.50;90.20
48208;DHT22;33997;53.278;9.708;2022-11-04T04:58:31;10.40;90.40
48208;DHT22;33997;53.278;9.708;2022-11-04T05:00:57;10.30;90.60
48208;DHT22;33997;53.278;9.708;2022-11-04T05:03:23;10.40;90.40
48208;DHT22;33997;53.278;9.708;2022-11-04T05:05:48;10.50;90.20
48208;DHT22;33997;53.278;9.708;2022-11-04T05:08:14;10.50;90.30
48208;DHT22;33997;53.278;9.708;2022-11-04T05:10:39;10.40;90.30
48208;DHT22;33997;53.278;9.708;2022-11-04T05:13:05;10.40;90.30
48208;DHT22;33997;53.278;9.708;2022-11-04T05:15:49;10.40;90.40
48208;DHT22;33997;53.278;9.708;2022-11-04T05:18:14;10.40;90.30
48208;DHT22;33997;53.278;9.708;2022-11-04T05:20:39;10.30;90.40
48208;DHT22;33997;53.278;9.708;2022-11-04T05:23:05;10.40;90.00
48208;DHT22;33997;53.278;9.708;2022-11-04T05:25:31;10.40;90.10
48208;DHT22;33997;53.278;9.708;2022-11-04T05:27:59;10.40;89.90
48208;DHT22;33997;53.278;9.708;2022-11-04T05:30:25;10.30;90.30
48208;DHT22;33997;53.278;9.708;2022-11-04T05:32:51;10.30;90.30
48208;DHT22;33997;53.278;9.708;2022-11-04T05:35:17;10.30;90.60
48208;DHT22;33997;53.278;9.708;2022-11-04T05:37:42;10.20;90.90
48208;DHT22;33997;53.278;9.708;2022-11-04T05:40:08;10.20;91.00
48208;DHT22;33997;53.278;9.708;2022-11-04T05:42:33;10.10;91.20
48208;DHT22;33997;53.278;9.708;2022-11-04T05:45:01;10.10;91.40
48208;DHT22;33997;53.278;9.708;2022-11-04T05:47:26;10.10;91.50
48208;DHT22;33997;53.278;9.708;2022-11-04T05:49:52;10.10;91.40
48208;DHT22;33997;53.278;9.708;2022-11-04T05:52:17;10.10;91.60
48208;DHT22;33997;53.278;9.708;2022-11-04T05:54:42;10.10;91.60
48208;DHT22;33997;53.278;9.708;2022-11-04T05:57:08;10.10;91.60
48208;DHT22;33997;53.278;9.708;2022-11-04T05:59:34;10.10;91.80
48208;DHT22;33997;53.278;9.708;2022-11-04T06:02:00;10.10;91.70
48208;DHT22;33997;53.278;9.708;2022-11-04T06:04:26;10.10;91.70
48208;DHT22;33997;53.278;9.708;2022-11-04T06:06:51;10.10;91.80
48208;DHT22;33997;53.278;9.708;2022-11-04T06:09:17;10.10;91.90
48208;DHT22;33997;53.278;9.708;2022-11-04T06:11:42;10.10;91.90
48208;DHT22;33997;53.278;9.708;2022-11-04T06:14:08;10.10;91.70
48208;DHT22;33997;53.278;9.708;2022-11-04T06:16:33;10.10;91.70
48208;DHT22;33997;53.278;9.708;2022-11-04T06:18:59;10.00;91.90
48208;DHT22;33997;53.278;9.708;2022-11-04T06:21:25;10.10;91.80
48208;DHT22;33997;53.278;9.708;2022-11-04T06:23:52;10.00;92.00
48208;DHT22;33997;53.278;9.708;2022-11-04T06:26:17;10.00;92.30
48208;DHT22;33997;53.278;9.708;2022-11-04T06:28:43;10.10;92.00
48208;DHT22;33997;53.278;9.708;2022-11-04T06:31:09;10.10;92.00
48208;DHT22;33997;53.278;9.708;2022-11-04T06:33:35;10.10;92.00
48208;DHT22;33997;53.278;9.708;2022-11-04T06:36:01;10.10;91.70
48208;DHT22;33997;53.278;9.708;2022-11-04T06:38:30;10.20;91.70
48208;DHT22;33997;53.278;9.708;2022-11-04T06:40:56;10.20;91.70
48208;DHT22;33997;53.278;9.708;2022-11-04T06:43:22;10.10;91.60
48208;DHT22;33997;53.278;9.708;2022-11-04T06:45:53;10.20;91.50
48208;DHT22;33997;53.278;9.708;2022-11-04T06:48:19;10.20;91.70
48208;DHT22;33997;53.278;9.708;2022-11-04T06:50:44;10.20;91.60
48208;DHT22;33997;53.278;9.708;2022-11-04T06:53:10;10.10;91.50
48208;DHT22;33997;53.278;9.708;2022-11-04T06:55:35;10.20;91.30
48208;DHT22;33997;53.278;9.708;2022-11-04T06:58:00;10.10;91.30
48208;DHT22;33997;53.278;9.708;2022-11-04T07:00:26;10.10;91.50
48208;DHT22;33997;53.278;9.708;2022-11-04T07:02:51;10.10;91.50
48208;DHT22;33997;53.278;9.708;2022-11-04T07:05:17;10.10;91.60
48208;DHT22;33997;53.278;9.708;2022-11-04T07:07:42;10.10;91.40
48208;DHT22;33997;53.278;9.708;2022-11-04T07:10:08;10.10;91.40
48208;DHT22;33997;53.278;9.708;2022-11-04T07:12:33;10.20;91.30
48208;DHT22;33997;53.278;9.708;2022-11-04T07:14:59;10.20;91.30
48208;DHT22;33997;53.278;9.708;2022-11-04T07:17:24;10.10;91.40
48208;DHT22;33997;53.278;9.708;2022-11-04T07:19:49;10.10;91.60
48208;DHT22;33997;53.278;9.708;2022-11-04T07:22:15;10.10;91.60
48208;DHT22;33997;53.278;9.708;2022-11-04T07:24:40;10.10;91.60
48208;DHT22;33997;53.278;9.708;2022-11-04T07:27:06;10.10;91.40
48208;DHT22;33997;53.278;9.708;2022-11-04T07:29:32;10.10;91.30
48208;DHT22;33997;53.278;9.708;2022-11-04T07:31:57;10.10;91.50
48208;DHT22;33997;53.278;9.708;2022-11-04T07:34:23;10.10;91.60
48208;DHT22;33997;53.278;9.708;2022-11-04T07:36:48;10.10;91.80
48208;DHT22;33997;53.278;9.708;2022-11-04T07:39:14;10.10;91.60
48208;DHT22;33997;53.278;9.708;2022-11-04T07:41:39;10.10;91.60
48208;DHT22;33997;53.278;9.708;2022-11-04T07:44:04;10.10;91.50
48208;DHT22;33997;53.278;9.708;2022-11-04T07:46:30;10.10;91.50
48208;DHT22;33997;53.278;9.708;2022-11-04T07:48:56;10.10;91.40
48208;DHT22;33997;53.278;9.708;2022-11-04T07:51:23;10.10;91.40
48208;DHT22;33997;53.278;9.708;2022-11-04T07:53:48;10.10;91.20
48208;DHT22;33997;53.278;9.708;2022-11-04T07:56:14;10.10;91.20
48208;DHT22;33997;53.278;9.708;2022-11-04T07:58:40;10.20;91.10
48208;DHT22;33997;53.278;9.708;2022-11-04T08:01:08;10.30;90.60
48208;DHT22;33997;53.278;9.708;2022-11-04T08:03:34;10.30;90.30
48208;DHT22;33997;53.278;9.708;2022-11-04T08:06:01;10.40;90.10
48208;DHT22;33997;53.278;9.708;2022-11-04T08:08:27;10.50;90.00
48208;DHT22;33997;53.278;9.708;2022-11-04T08:10:57;10.50;89.50
48208;DHT22;33997;53.278;9.708;2022-11-04T08:13:27;10.50;89.20
48208;DHT22;33997;53.278;9.708;2022-11-04T08:15:53;10.50;88.30
48208;DHT22;33997;53.278;9.708;2022-11-04T08:18:19;10.50;88.50
48208;DHT22;33997;53.278;9.708;2022-11-04T08:20:48;10.50;88.70
48208;DHT22;33997;53.278;9.708;2022-11-04T08:23:14;10.50;88.60
48208;DHT22;33997;53.278;9.708;2022-11-04T08:25:40;10.50;88.70
48208;DHT22;33997;53.278;9.708;2022-11-04T08:28:06;10.40;88.50
48208;DHT22;33997;53.278;9.708;2022-11-04T08:30:31;10.40;88.70
48208;DHT22;33997;53.278;9.708;2022-11-04T08:32:58;10.40;88.50
48208;DHT22;33997;53.278;9.708;2022-11-04T08:35:23;10.40;88.60
48208;DHT22;33997;53.278;9.708;2022-11-04T08:37:49;10.40;88.80
48208;DHT22;33997;53.278;9.708;2022-11-04T08:40:15;10.30;88.60
48208;DHT22;33997;53.278;9.708;2022-11-04T08:42:40;10.30;88.60
48208;DHT22;33997;53.278;9.708;2022-11-04T08:45:06;10.30;88.80
48208;DHT22;33997;53.278;9.708;2022-11-04T08:47:31;10.30;88.90
48208;DHT22;33997;53.278;9.708;2022-11-04T08:49:57;10.40;89.10
48208;DHT22;33997;53.278;9.708;2022-11-04T08:52:22;10.40;88.60
48208;DHT22;33997;53.278;9.708;2022-11-04T08:54:48;10.50;88.50
48208;DHT22;33997;53.278;9.708;2022-11-04T08:57:14;10.60;88.50
48208;DHT22;33997;53.278;9.708;2022-11-04T08:59:39;10.60;88.40
48208;DHT22;33997;53.278;9.708;2022-11-04T09:02:05;10.70;88.60
48208;DHT22;33997;53.278;9.708;2022-11-04T09:04:30;10.80;88.20
48208;DHT22;33997;53.278;9.708;2022-11-04T09:06:55;10.80;88.00
48208;DHT22;33997;53.278;9.708;2022-11-04T09:09:21;10.80;88.00
48208;DHT22;33997;53.278;9.708;2022-11-04T09:11:47;10.70;87.90
48208;DHT22;33997;53.278;9.708;2022-11-04T09:14:12;10.80;88.30
48208;DHT22;33997;53.278;9.708;2022-11-04T09:16:38;10.70;88.70
48208;DHT22;33997;53.278;9.708;2022-11-04T09:19:04;10.70;88.70
48208;DHT22;33997;53.278;9.708;2022-11-04T09:21:30;10.70;88.80
48208;DHT22;33997;53.278;9.708;2022-11-04T09:23:55;10.80;88.60
48208;DHT22;33997;53.278;9.708;2022-11-04T09:26:21;10.70;88.40
48208;DHT22;33997;53.278;9.708;2022-11-04T09:28:47;10.80;88.50
48208;DHT22;33997;53.278;9.708;2022-11-04T09:31:13;10.80;88.40
48208;DHT22;33997;53.278;9.708;2022-11-04T09:33:39;10.80;88.20
48208;DHT22;33997;53.278;9.708;2022-11-04T09:36:05;10.80;88.30
48208;DHT22;33997;53.278;9.708;2022-11-04T09:38:32;10.90;88.40
48208;DHT22;33997;53.278;9.708;2022-11-04T09:40:58;11.00;88.30
48208;DHT22;33997;53.278;9.708;2022-11-04T09:46:08;11.20;87.80
48208;DHT22;33997;53.278;9.708;2022-11-04T09:48:40;11.30;87.50
48208;DHT22;33997;53.278;9.708;2022-11-04T09:51:06;11.30;86.90
48208;DHT22;33997;53.278;9.708;2022-11-04T09:53:35;11.20;86.70
48208;DHT22;33997;53.278;9.708;2022-11-04T09:56:03;11.30;87.00
48208;DHT22;33997;53.278;9.708;2022-11-04T09:58:33;11.30;86.60
48208;DHT22;33997;53.278;9.708;2022-11-04T10:01:05;11.30;86.80
48208;DHT22;33997;53.278;9.708;2022-11-04T10:03:38;11.10;87.00
48208;DHT22;33997;53.278;9.708;2022-11-04T10:06:23;11.00;87.10
48208;DHT22;33997;53.278;9.708;2022-11-04T10:09:02;11.40;87.20
48208;DHT22;33997;53.278;9.708;2022-11-04T10:14:14;11.60;86.50
48208;DHT22;33997;53.278;9.708;2022-11-04T10:16:55;11.80;85.90
48208;DHT22;33997;53.278;9.708;2022-11-04T10:19:34;12.10;84.60
48208;DHT22;33997;53.278;9.708;2022-11-04T10:22:03;12.10;84.20
48208;DHT22;33997;53.278;9.708;2022-11-04T10:24:41;11.90;84.60
48208;DHT22;33997;53.278;9.708;2022-11-04T10:27:16;12.00;84.50
48208;DHT22;33997;53.278;9.708;2022-11-04T10:29:43;11.90;83.70
48208;DHT22;33997;53.278;9.708;2022-11-04T10:34:57;12.00;83.90
48208;DHT22;33997;53.278;9.708;2022-11-04T10:37:25;12.00;83.90
48208;DHT22;33997;53.278;9.708;2022-11-04T10:39:52;11.90;84.00
48208;DHT22;33997;53.278;9.708;2022-11-04T10:42:21;11.70;83.70
48208;DHT22;33997;53.278;9.708;2022-11-04T10:44:47;11.70;83.80
48208;DHT22;33997;53.278;9.708;2022-11-04T10:49:56;11.50;84.10
48208;DHT22;33997;53.278;9.708;2022-11-04T10:52:26;11.60;84.50
48208;DHT22;33997;53.278;9.708;2022-11-04T10:54:51;11.70;84.70
48208;DHT22;33997;53.278;9.708;2022-11-04T10:57:18;11.70;84.50
48208;DHT22;33997;53.278;9.708;2022-11-04T11:02:10;11.90;84.20
48208;DHT22;33997;53.278;9.708;2022-11-04T11:04:36;11.90;84.20
48208;DHT22;33997;53.278;9.708;2022-11-04T11:07:06;12.00;84.10
48208;DHT22;33997;53.278;9.708;2022-11-04T11:09:35;12.30;83.90
48208;DHT22;33997;53.278;9.708;2022-11-04T11:12:02;12.30;83.60
48208;DHT22;33997;53.278;9.708;2022-11-04T11:16:55;12.40;83.00
48208;DHT22;33997;53.278;9.708;2022-11-04T11:19:21;12.50;82.70
48208;DHT22;33997;53.278;9.708;2022-11-04T11:21:47;12.70;82.10
48208;DHT22;33997;53.278;9.708;2022-11-04T11:24:15;12.70;82.50
48208;DHT22;33997;53.278;9.708;2022-11-04T11:26:41;12.90;81.60
48208;DHT22;33997;53.278;9.708;2022-11-04T11:29:12;13.00;80.80
48208;DHT22;33997;53.278;9.708;2022-11-04T11:31:42;13.00;80.10
48208;DHT22;33997;53.278;9.708;2022-11-04T11:34:13;13.30;80.10
48208;DHT22;33997;53.278;9.708;2022-11-04T11:36:39;13.20;79.60
48208;DHT22;33997;53.278;9.708;2022-11-04T11:41:48;13.00;79.50
48208;DHT22;33997;53.278;9.708;2022-11-04T11:46:48;13.10;80.10
48208;DHT22;33997;53.278;9.708;2022-11-04T11:49:22;12.90;81.40
48208;DHT22;33997;53.278;9.708;2022-11-04T11:51:47;12.80;80.40
48208;DHT22;33997;53.278;9.708;2022-11-04T11:54:16;12.70;80.90
48208;DHT22;33997;53.278;9.708;2022-11-04T11:56:44;12.90;81.00
48208;DHT22;33997;53.278;9.708;2022-11-04T12:02:01;12.70;80.90
48208;DHT22;33997;53.278;9.708;2022-11-04T12:04:28;12.90;80.20
48208;DHT22;33997;53.278;9.708;2022-11-04T12:06:58;13.10;79.60
48208;DHT22;33997;53.278;9.708;2022-11-04T12:09:41;13.20;79.80
48208;DHT22;33997;53.278;9.708;2022-11-04T12:17:44;13.80;78.70
48208;DHT22;33997;53.278;9.708;2022-11-04T12:20:31;13.90;78.20
48208;DHT22;33997;53.278;9.708;2022-11-04T12:23:16;14.00;77.40
48208;DHT22;33997;53.278;9.708;2022-11-04T12:31:03;14.30;76.60
48208;DHT22;33997;53.278;9.708;2022-11-04T12:33:38;14.70;76.00
48208;DHT22;33997;53.278;9.708;2022-11-04T12:36:09;14.80;74.60
48208;DHT22;33997;53.278;9.708;2022-11-04T12:44:21;13.70;77.20
48208;DHT22;33997;53.278;9.708;2022-11-04T12:49:27;13.10;78.90
48208;DHT22;33997;53.278;9.708;2022-11-04T12:54:57;12.60;80.50
48208;DHT22;33997;53.278;9.708;2022-11-04T12:57:44;12.50;81.30
48208;DHT22;33997;53.278;9.708;2022-11-04T13:00:13;12.40;81.90
48208;DHT22;33997;53.278;9.708;2022-11-04T13:02:42;12.30;81.60
48208;DHT22;33997;53.278;9.708;2022-11-04T13:08:14;12.30;81.20
48208;DHT22;33997;53.278;9.708;2022-11-04T13:10:33;12.30;81.60
48208;DHT22;33997;53.278;9.708;2022-11-04T13:13:01;12.40;81.40
48208;DHT22;33997;53.278;9.708;2022-11-04T13:15:27;12.40;81.40
48208;DHT22;33997;53.278;9.708;2022-11-04T13:17:59;12.50;81.30
48208;DHT22;33997;53.278;9.708;2022-11-04T13:20:29;12.50;81.20
48208;DHT22;33997;53.278;9.708;2022-11-04T13:22:57;12.60;81.50
48208;DHT22;33997;53.278;9.708;2022-11-04T13:25:33;12.90;81.10
48208;DHT22;33997;53.278;9.708;2022-11-04T13:28:01;13.10;79.90
48208;DHT22;33997;53.278;9.708;2022-11-04T13:35:53;13.60;77.00
48208;DHT22;33997;53.278;9.708;2022-11-04T13:38:38;13.60;77.00
48208;DHT22;33997;53.278;9.708;2022-11-04T13:43:45;13.60;77.10
48208;DHT22;33997;53.278;9.708;2022-11-04T13:48:41;14.00;76.20
48208;DHT22;33997;53.278;9.708;2022-11-04T13:51:12;13.80;76.10
48208;DHT22;33997;53.278;9.708;2022-11-04T13:56:23;13.40;76.90
48208;DHT22;33997;53.278;9.708;2022-11-04T13:58:53;13.20;78.10
48208;DHT22;33997;53.278;9.708;2022-11-04T14:03:50;13.10;78.70
48208;DHT22;33997;53.278;9.708;2022-11-04T14:06:17;13.20;78.10
48208;DHT22;33997;53.278;9.708;2022-11-04T14:14:30;13.20;77.40
48208;DHT22;33997;53.278;9.708;2022-11-04T14:16:56;13.10;77.80
48208;DHT22;33997;53.278;9.708;2022-11-04T14:22:11;12.90;79.10
48208;DHT22;33997;53.278;9.708;2022-11-04T14:24:38;12.70;79.20
48208;DHT22;33997;53.278;9.708;2022-11-04T14:27:03;12.60;79.80
48208;DHT22;33997;53.278;9.708;2022-11-04T14:29:30;12.40;80.50
48208;DHT22;33997;53.278;9.708;2022-11-04T14:31:56;12.20;81.20
48208;DHT22;33997;53.278;9.708;2022-11-04T14:36:48;12.10;81.80
48208;DHT22;33997;53.278;9.708;2022-11-04T14:39:20;12.00;82.10
48208;DHT22;33997;53.278;9.708;2022-11-04T14:41:54;12.00;82.30
48208;DHT22;33997;53.278;9.708;2022-11-04T14:44:24;12.00;82.90
48208;DHT22;33997;53.278;9.708;2022-11-04T14:46:51;11.80;82.80
48208;DHT22;33997;53.278;9.708;2022-11-04T14:49:38;11.80;82.60
48208;DHT22;33997;53.278;9.708;2022-11-04T14:52:14;11.80;82.70
48208;DHT22;33997;53.278;9.708;2022-11-04T14:54:40;11.70;83.10
48208;DHT22;33997;53.278;9.708;2022-11-04T14:57:08;11.80;82.80
48208;DHT22;33997;53.278;9.708;2022-11-04T14:59:37;11.70;83.10
48208;DHT22;33997;53.278;9.708;2022-11-04T15:02:02;11.60;83.10
48208;DHT22;33997;53.278;9.708;2022-11-04T15:04:28;11.60;83.10
48208;DHT22;33997;53.278;9.708;2022-11-04T15:07:01;11.50;83.60
48208;DHT22;33997;53.278;9.708;2022-11-04T15:09:31;11.60;83.50
48208;DHT22;33997;53.278;9.708;2022-11-04T15:14:52;11.50;83.80
48208;DHT22;33997;53.278;9.708;2022-11-04T15:17:18;11.60;84.20
48208;DHT22;33997;53.278;9.708;2022-11-04T15:19:46;11.60;84.20
48208;DHT22;33997;53.278;9.708;2022-11-04T15:22:12;11.60;84.30
48208;DHT22;33997;53.278;9.708;2022-11-04T15:24:39;11.60;84.40
48208;DHT22;33997;53.278;9.708;2022-11-04T15:27:05;11.60;84.50
48208;DHT22;33997;53.278;9.708;2022-11-04T15:29:31;11.60;84.50
48208;DHT22;33997;53.278;9.708;2022-11-04T15:31:57;11.50;84.80
48208;DHT22;33997;53.278;9.708;2022-11-04T15:34:26;11.50;85.20
48208;DHT22;33997;53.278;9.708;2022-11-04T15:36:53;11.30;85.70
48208;DHT22;33997;53.278;9.708;2022-11-04T15:39:24;11.30;85.40
48208;DHT22;33997;53.278;9.708;2022-11-04T15:41:51;11.20;85.70
48208;DHT22;33997;53.278;9.708;2022-11-04T15:44:37;11.10;85.80
48208;DHT22;33997;53.278;9.708;2022-11-04T15:47:19;11.00;86.30
48208;DHT22;33997;53.278;9.708;2022-11-04T15:49:46;11.00;86.30
48208;DHT22;33997;53.278;9.708;2022-11-04T15:52:16;11.00;86.30
48208;DHT22;33997;53.278;9.708;2022-11-04T15:54:51;11.00;86.30
48208;DHT22;33997;53.278;9.708;2022-11-04T15:57:18;11.00;86.60
48208;DHT22;33997;53.278;9.708;2022-11-04T15:59:48;11.00;86.50
48208;DHT22;33997;53.278;9.708;2022-11-04T16:02:21;10.90;86.60
48208;DHT22;33997;53.278;9.708;2022-11-04T16:05:00;10.90;86.80
48208;DHT22;33997;53.278;9.708;2022-11-04T16:07:28;10.80;86.90
48208;DHT22;33997;53.278;9.708;2022-11-04T16:09:54;10.80;87.00
48208;DHT22;33997;53.278;9.708;2022-11-04T16:14:51;10.80;87.10
48208;DHT22;33997;53.278;9.708;2022-11-04T16:17:17;10.80;87.30
48208;DHT22;33997;53.278;9.708;2022-11-04T16:19:44;10.70;87.50
48208;DHT22;33997;53.278;9.708;2022-11-04T16:22:10;10.60;87.60
48208;DHT22;33997;53.278;9.708;2022-11-04T16:24:36;10.60;87.90
48208;DHT22;33997;53.278;9.708;2022-11-04T16:27:07;10.50;88.10
48208;DHT22;33997;53.278;9.708;2022-11-04T16:29:33;10.40;88.40
48208;DHT22;33997;53.278;9.708;2022-11-04T16:32:16;10.40;88.60
48208;DHT22;33997;53.278;9.708;2022-11-04T16:34:46;10.30;88.80
48208;DHT22;33997;53.278;9.708;2022-11-04T16:37:13;10.20;88.90
48208;DHT22;33997;53.278;9.708;2022-11-04T16:39:39;10.10;89.40
48208;DHT22;33997;53.278;9.708;2022-11-04T16:42:04;10.00;89.50
48208;DHT22;33997;53.278;9.708;2022-11-04T16:44:30;9.80;89.60
48208;DHT22;33997;53.278;9.708;2022-11-04T16:46:56;9.70;89.70
48208;DHT22;33997;53.278;9.708;2022-11-04T16:49:22;9.60;90.10
48208;DHT22;33997;53.278;9.708;2022-11-04T16:51:49;9.50;90.60
48208;DHT22;33997;53.278;9.708;2022-11-04T16:54:14;9.40;91.00
48208;DHT22;33997;53.278;9.708;2022-11-04T16:56:40;9.40;91.40
48208;DHT22;33997;53.278;9.708;2022-11-04T16:59:07;9.30;91.80
48208;DHT22;33997;53.278;9.708;2022-11-04T17:01:32;9.20;91.90
48208;DHT22;33997;53.278;9.708;2022-11-04T17:03:58;9.10;91.70
48208;DHT22;33997;53.278;9.708;2022-11-04T17:06:23;8.90;91.50
48208;DHT22;33997;53.278;9.708;2022-11-04T17:08:49;8.80;92.10
48208;DHT22;33997;53.278;9.708;2022-11-04T17:11:15;8.80;92.40
48208;DHT22;33997;53.278;9.708;2022-11-04T17:13:40;8.80;92.50
48208;DHT22;33997;53.278;9.708;2022-11-04T17:16:06;8.60;92.70
48208;DHT22;33997;53.278;9.708;2022-11-04T17:18:32;8.60;93.10
48208;DHT22;33997;53.278;9.708;2022-11-04T17:20:58;8.60;93.50
48208;DHT22;33997;53.278;9.708;2022-11-04T17:23:25;8.60;93.80
48208;DHT22;33997;53.278;9.708;2022-11-04T17:25:50;8.50;93.80